Time;durP1;ratioP1;P1;durP2;ratioP2;P2;SDS_P1;SDS_P2;PMS_P1;PMS_P2;Temp;Humidity;BMP_temperature;BMP_pressure;BME280_temperature;BME280_humidity;BME280_pressure;Samples;Min_cycle;Max_cycle;Signal;HPM_P1;HPM_P2
2023/09/28 00:01:38;;;;;;;2.60;2.17;;;21.00;62.60;;;;;;5026422;28;20460;-50
2023/09/28 00:04:06;;;;;;;5.23;2.17;;;21.00;62.50;;;;;;5028419;28;20447;-50
2023/09/28 00:06:35;;;;;;;2.40;2.20;;;21.00;62.80;;;;;;5024018;28;20576;-50
2023/09/28 00:09:03;;;;;;;1.90;1.80;;;21.00;62.60;;;;;;5029786;28;20478;-53
2023/09/28 00:11:31;;;;;;;2.87;2.17;;;21.00;62.60;;;;;;5027437;28;20479;-50
2023/09/28 00:14:00;;;;;;;2.33;2.13;;;21.00;62.80;;;;;;5024346;28;20495;-51
2023/09/28 00:16:28;;;;;;;3.67;2.43;;;21.00;62.80;;;;;;5024922;28;20495;-50
2023/09/28 00:18:55;;;;;;;3.40;2.17;;;21.00;62.70;;;;;;5028654;28;20945;-50
2023/09/28 00:21:24;;;;;;;2.57;2.10;;;21.00;62.40;;;;;;5020140;28;20486;-51
2023/09/28 00:23:52;;;;;;;2.50;2.20;;;21.00;62.70;;;;;;5026278;28;20468;-50
2023/09/28 00:26:22;;;;;;;2.33;2.07;;;21.00;62.30;;;;;;5025917;28;20479;-50
2023/09/28 00:28:50;;;;;;;2.47;2.27;;;21.00;62.30;;;;;;5031157;28;20540;-50
2023/09/28 00:31:20;;;;;;;2.83;2.60;;;21.00;62.10;;;;;;5024687;28;20869;-50
2023/09/28 00:33:48;;;;;;;2.77;2.27;;;21.00;62.50;;;;;;5044994;28;20464;-50
2023/09/28 00:36:16;;;;;;;2.60;2.33;;;21.00;62.40;;;;;;5024529;28;20854;-51
2023/09/28 00:38:47;;;;;;;2.27;1.97;;;21.00;62.20;;;;;;5027708;28;20451;-50
2023/09/28 00:41:15;;;;;;;2.33;2.10;;;21.00;62.40;;;;;;5028636;28;20487;-49
2023/09/28 00:43:42;;;;;;;3.50;2.33;;;21.00;62.60;;;;;;5027483;28;20472;-49
2023/09/28 00:46:16;;;;;;;3.27;1.97;;;21.00;62.90;;;;;;5022332;28;20459;-50
2023/09/28 00:48:57;;;;;;;2.90;2.40;;;21.00;62.70;;;;;;5026695;28;20452;-50
2023/09/28 00:51:27;;;;;;;2.20;2.00;;;21.00;62.90;;;;;;5036197;28;20550;-51
2023/09/28 00:53:56;;;;;;;2.77;2.30;;;21.00;63.00;;;;;;5030158;28;20461;-50
2023/09/28 00:56:25;;;;;;;2.90;2.43;;;21.00;63.20;;;;;;5028019;28;20468;-50
2023/09/28 00:58:56;;;;;;;1.73;1.63;;;21.00;63.20;;;;;;5024503;28;20445;-52
2023/09/28 01:01:29;;;;;;;3.00;2.23;;;21.00;63.20;;;;;;5027185;28;20819;-51
2023/09/28 01:04:01;;;;;;;2.73;2.53;;;21.00;63.10;;;;;;5035959;28;20636;-50
2023/09/28 01:06:30;;;;;;;5.43;1.80;;;21.00;63.00;;;;;;5035689;28;20839;-51
2023/09/28 01:08:59;;;;;;;3.00;2.30;;;21.00;62.70;;;;;;5027389;28;20429;-50
2023/09/28 01:11:28;;;;;;;2.67;2.47;;;21.00;62.60;;;;;;5030250;28;20461;-50
2023/09/28 01:13:57;;;;;;;2.67;2.40;;;21.00;62.80;;;;;;5030428;28;20973;-50
2023/09/28 01:16:25;;;;;;;2.40;1.83;;;21.00;62.60;;;;;;5022625;28;20882;-50
2023/09/28 01:18:54;;;;;;;2.40;2.20;;;21.00;62.80;;;;;;5039933;28;20672;-50
2023/09/28 01:21:25;;;;;;;2.10;1.90;;;21.00;62.90;;;;;;5026805;28;20479;-50
2023/09/28 01:23:55;;;;;;;2.33;2.10;;;21.00;62.80;;;;;;5026991;28;20458;-51
2023/09/28 01:26:22;;;;;;;2.20;1.90;;;21.00;62.90;;;;;;5024424;28;20456;-50
2023/09/28 01:28:51;;;;;;;2.50;1.90;;;21.00;63.00;;;;;;5022065;28;20929;-51
2023/09/28 01:31:18;;;;;;;2.53;2.33;;;21.00;63.10;;;;;;5022887;28;20464;-50
2023/09/28 01:33:47;;;;;;;3.80;2.10;;;21.00;63.10;;;;;;5039393;28;20872;-51
2023/09/28 01:36:14;;;;;;;2.03;1.83;;;21.00;63.30;;;;;;5026067;28;20486;-51
2023/09/28 01:38:48;;;;;;;2.00;1.90;;;21.00;63.30;;;;;;5030240;28;20440;-50
2023/09/28 01:41:16;;;;;;;2.03;1.83;;;21.00;63.40;;;;;;5028018;28;20467;-50
2023/09/28 01:43:44;;;;;;;3.10;2.20;;;21.00;63.40;;;;;;5038945;28;21040;-50
2023/09/28 01:46:12;;;;;;;2.20;2.00;;;21.00;63.60;;;;;;5019798;28;20468;-51
2023/09/28 01:48:40;;;;;;;1.80;1.70;;;21.00;63.70;;;;;;5024599;28;20491;-51
2023/09/28 01:51:07;;;;;;;2.20;2.00;;;21.00;63.70;;;;;;5028084;28;20474;-50
2023/09/28 01:53:36;;;;;;;2.13;1.90;;;21.00;63.80;;;;;;5037951;28;20798;-50
2023/09/28 01:56:04;;;;;;;2.50;1.97;;;21.00;63.80;;;;;;5027634;28;20559;-50
2023/09/28 01:58:34;;;;;;;2.70;1.93;;;21.00;63.90;;;;;;5027939;28;20464;-50
2023/09/28 02:01:02;;;;;;;2.23;2.03;;;21.00;63.90;;;;;;5037961;28;20477;-49
2023/09/28 02:03:30;;;;;;;2.63;2.43;;;21.00;64.00;;;;;;5024396;28;20558;-50
2023/09/28 02:05:58;;;;;;;2.23;2.03;;;21.00;63.90;;;;;;5026174;28;20479;-49
2023/09/28 02:08:26;;;;;;;1.80;1.60;;;21.00;63.90;;;;;;5041108;28;20953;-50
2023/09/28 02:10:53;;;;;;;3.00;2.13;;;21.00;63.90;;;;;;5040113;28;20460;-50
2023/09/28 02:13:23;;;;;;;2.30;2.07;;;21.00;65.20;;;;;;5027225;28;20845;-50
2023/09/28 02:15:51;;;;;;;1.77;1.67;;;21.00;63.90;;;;;;5033163;28;20467;-50
2023/09/28 02:18:19;;;;;;;2.70;2.10;;;21.00;63.90;;;;;;5023306;28;20450;-51
2023/09/28 02:20:47;;;;;;;2.10;1.90;;;21.00;64.00;;;;;;5017405;28;21007;-50
2023/09/28 02:23:16;;;;;;;2.47;2.10;;;20.90;64.00;;;;;;5015754;28;20477;-50
2023/09/28 02:25:43;;;;;;;2.70;2.50;;;21.00;64.30;;;;;;5034142;28;20544;-50
2023/09/28 02:28:11;;;;;;;2.27;1.90;;;20.90;64.20;;;;;;5010219;28;20447;-52
2023/09/28 02:30:38;;;;;;;2.53;2.00;;;21.00;64.20;;;;;;5008397;28;20469;-52
2023/09/28 02:33:09;;;;;;;2.10;1.90;;;21.00;64.30;;;;;;5018134;28;20480;-49
2023/09/28 02:35:36;;;;;;;2.00;1.70;;;21.00;64.20;;;;;;5017623;28;20687;-50
2023/09/28 02:38:04;;;;;;;2.30;1.77;;;21.00;64.10;;;;;;5019213;28;20455;-49
2023/09/28 02:40:32;;;;;;;3.43;2.10;;;20.90;64.10;;;;;;5015832;28;20850;-50
2023/09/28 02:43:00;;;;;;;3.67;2.10;;;21.00;64.20;;;;;;5014961;28;20459;-51
2023/09/28 02:45:27;;;;;;;2.07;1.87;;;20.90;64.00;;;;;;5009920;28;20997;-49
2023/09/28 02:47:55;;;;;;;2.37;2.00;;;20.90;64.10;;;;;;5012740;28;20433;-50
2023/09/28 02:50:24;;;;;;;2.60;1.87;;;21.00;64.20;;;;;;5014750;28;20523;-50
2023/09/28 02:52:52;;;;;;;2.87;2.57;;;21.00;64.20;;;;;;5022518;28;20472;-50
2023/09/28 02:55:21;;;;;;;2.00;1.80;;;20.90;64.10;;;;;;5028085;28;21074;-50
2023/09/28 02:57:49;;;;;;;2.63;1.90;;;20.90;64.10;;;;;;5040530;28;20429;-50
2023/09/28 03:00:30;;;;;;;2.00;1.80;;;20.90;64.10;;;;;;5032903;28;20535;-50
2023/09/28 03:03:00;;;;;;;3.87;1.97;;;20.90;64.10;;;;;;5027193;28;20455;-51
2023/09/28 03:05:28;;;;;;;2.47;2.03;;;20.90;64.00;;;;;;5023528;28;20571;-50
2023/09/28 03:07:57;;;;;;;2.73;2.20;;;20.90;64.20;;;;;;5028210;28;20443;-50
2023/09/28 03:10:24;;;;;;;2.27;2.07;;;20.90;64.00;;;;;;5026576;28;20510;-50
2023/09/28 03:12:56;;;;;;;2.27;2.07;;;20.90;64.10;;;;;;5036663;28;20475;-50
2023/09/28 03:15:24;;;;;;;2.43;1.80;;;20.90;64.20;;;;;;5026848;28;20471;-49
2023/09/28 03:17:52;;;;;;;2.40;2.20;;;20.90;64.10;;;;;;5028575;28;20428;-51
2023/09/28 03:20:21;;;;;;;2.60;2.23;;;20.90;64.10;;;;;;5018621;28;20502;-50
2023/09/28 03:22:50;;;;;;;2.30;2.03;;;20.90;64.20;;;;;;5030469;28;20531;-50
2023/09/28 03:25:20;;;;;;;2.20;2.00;;;20.90;64.10;;;;;;5027640;28;20898;-50
2023/09/28 03:27:49;;;;;;;1.93;1.83;;;20.90;64.20;;;;;;5023771;28;20439;-51
2023/09/28 03:30:18;;;;;;;2.00;1.80;;;20.90;64.30;;;;;;5018580;28;20828;-49
2023/09/28 03:32:47;;;;;;;2.10;1.90;;;20.90;64.40;;;;;;5023265;28;20830;-50
2023/09/28 03:35:16;;;;;;;2.10;1.90;;;20.90;64.30;;;;;;5022152;28;20708;-50
2023/09/28 03:37:46;;;;;;;1.90;1.80;;;20.90;64.40;;;;;;5028440;28;20468;-50
2023/09/28 03:40:16;;;;;;;2.77;2.27;;;20.90;64.40;;;;;;5028270;28;20517;-50
2023/09/28 03:42:46;;;;;;;3.73;2.40;;;20.90;64.50;;;;;;5029531;28;20450;-51
2023/09/28 03:45:16;;;;;;;2.67;1.70;;;20.90;64.60;;;;;;5023983;28;20770;-50
2023/09/28 03:47:45;;;;;;;2.40;2.20;;;20.90;64.70;;;;;;5025331;28;20440;-50
2023/09/28 03:50:13;;;;;;;3.90;2.20;;;20.90;64.70;;;;;;5023755;28;20538;-51
2023/09/28 03:52:42;;;;;;;1.67;1.57;;;20.90;64.70;;;;;;5027268;28;20443;-51
2023/09/28 03:55:11;;;;;;;3.30;2.10;;;20.90;64.70;;;;;;5028138;28;20540;-50
2023/09/28 03:57:42;;;;;;;2.60;2.40;;;20.90;64.70;;;;;;5026968;28;20454;-50
2023/09/28 04:00:14;;;;;;;1.87;1.73;;;20.90;64.70;;;;;;5025328;28;20462;-52
2023/09/28 04:02:44;;;;;;;2.13;1.93;;;20.90;64.70;;;;;;5028883;28;20416;-50
2023/09/28 04:05:16;;;;;;;2.43;2.23;;;20.90;64.70;;;;;;5025541;28;21313;-50
2023/09/28 04:07:44;;;;;;;2.90;2.50;;;20.90;64.70;;;;;;5026329;28;20432;-49
2023/09/28 04:10:13;;;;;;;2.33;2.13;;;20.90;64.70;;;;;;5023030;28;20427;-49
2023/09/28 04:12:42;;;;;;;3.70;2.40;;;20.90;64.70;;;;;;5027952;28;20964;-50
2023/09/28 04:15:10;;;;;;;2.67;2.20;;;20.90;64.70;;;;;;5023926;28;20486;-50
2023/09/28 04:17:39;;;;;;;2.37;2.10;;;20.90;64.70;;;;;;5024842;28;20447;-50
2023/09/28 04:20:13;;;;;;;1.70;1.50;;;20.90;64.70;;;;;;5023360;28;20821;-52
2023/09/28 04:22:41;;;;;;;4.43;2.43;;;20.90;64.70;;;;;;5027967;28;20932;-50
2023/09/28 04:25:10;;;;;;;2.40;1.87;;;20.90;64.70;;;;;;5025932;28;20435;-51
2023/09/28 04:27:39;;;;;;;2.50;2.20;;;20.90;64.70;;;;;;5026503;28;20471;-50
2023/09/28 04:30:10;;;;;;;1.97;1.77;;;20.90;64.70;;;;;;5028580;28;20448;-50
2023/09/28 04:32:38;;;;;;;2.50;2.20;;;20.90;64.70;;;;;;5026635;28;21126;-50
2023/09/28 04:35:10;;;;;;;2.03;1.80;;;20.90;64.70;;;;;;5025290;28;20497;-50
2023/09/28 04:37:39;;;;;;;3.17;2.40;;;20.90;64.80;;;;;;5024346;28;20417;-50
2023/09/28 04:40:10;;;;;;;2.33;2.13;;;20.90;64.70;;;;;;5026556;28;20471;-50
2023/09/28 04:42:39;;;;;;;2.70;2.03;;;20.90;64.70;;;;;;5026605;28;20432;-50
2023/09/28 04:45:10;;;;;;;2.47;2.00;;;20.90;64.70;;;;;;5024522;28;20440;-50
2023/09/28 04:47:38;;;;;;;2.50;2.23;;;20.90;64.70;;;;;;5027562;28;20491;-50
2023/09/28 04:50:08;;;;;;;2.60;2.23;;;20.80;64.60;;;;;;5026610;28;20443;-50
2023/09/28 04:52:36;;;;;;;2.40;2.20;;;20.80;64.60;;;;;;5027031;28;20997;-50
2023/09/28 04:55:05;;;;;;;2.00;1.70;;;20.80;64.60;;;;;;5030538;28;20969;-50
2023/09/28 04:57:35;;;;;;;2.00;1.73;;;20.80;64.60;;;;;;5026852;28;20435;-49
2023/09/28 05:00:06;;;;;;;2.47;1.80;;;20.80;64.60;;;;;;5022192;28;20484;-50
2023/09/28 05:02:36;;;;;;;2.30;2.10;;;20.80;64.60;;;;;;5034336;28;20448;-51
2023/09/28 05:05:08;;;;;;;2.27;1.97;;;20.80;64.60;;;;;;5025307;28;21001;-50
2023/09/28 05:07:36;;;;;;;3.33;2.23;;;20.80;64.60;;;;;;5028136;28;20451;-50
2023/09/28 05:10:07;;;;;;;1.83;1.70;;;20.80;64.70;;;;;;5026744;28;20447;-50
2023/09/28 05:12:35;;;;;;;2.20;2.00;;;20.80;64.60;;;;;;5023655;28;20436;-50
2023/09/28 05:15:04;;;;;;;2.50;2.30;;;20.80;64.60;;;;;;5022015;28;20465;-50
2023/09/28 05:17:32;;;;;;;3.10;2.00;;;20.80;64.60;;;;;;5025345;28;20444;-50
2023/09/28 05:20:03;;;;;;;2.53;2.30;;;20.80;64.60;;;;;;5027995;28;20447;-51
2023/09/28 05:22:31;;;;;;;2.03;1.93;;;20.80;64.60;;;;;;5023349;28;20459;-50
2023/09/28 05:24:59;;;;;;;2.10;1.83;;;20.80;64.60;;;;;;5036681;28;20444;-50
2023/09/28 05:27:27;;;;;;;2.90;2.53;;;20.80;64.70;;;;;;5025077;28;20456;-50
2023/09/28 05:29:56;;;;;;;2.37;2.17;;;20.80;64.60;;;;;;5024776;28;20525;-50
2023/09/28 05:32:24;;;;;;;2.03;1.80;;;20.80;64.60;;;;;;5022593;28;20470;-51
2023/09/28 05:34:52;;;;;;;2.37;2.03;;;20.80;64.70;;;;;;5027259;28;20499;-51
2023/09/28 05:37:22;;;;;;;3.30;2.20;;;20.80;64.70;;;;;;5015179;28;20475;-51
2023/09/28 05:39:50;;;;;;;1.80;1.70;;;20.80;64.70;;;;;;5024347;28;20447;-50
2023/09/28 05:42:18;;;;;;;2.00;1.80;;;20.80;64.60;;;;;;5020687;28;20511;-51
2023/09/28 05:44:46;;;;;;;2.30;2.10;;;20.80;64.60;;;;;;5022993;28;20460;-51
2023/09/28 05:47:15;;;;;;;2.70;2.30;;;20.80;64.70;;;;;;5026170;28;20468;-49
2023/09/28 05:49:43;;;;;;;2.30;2.10;;;20.80;64.60;;;;;;5025512;28;20464;-51
2023/09/28 05:52:12;;;;;;;2.87;2.10;;;20.80;64.60;;;;;;5023877;28;20462;-50
2023/09/28 05:54:42;;;;;;;2.20;2.00;;;20.80;64.70;;;;;;5030721;28;20491;-51
2023/09/28 05:57:10;;;;;;;2.60;2.40;;;20.80;64.60;;;;;;5025851;28;20472;-50
2023/09/28 05:59:38;;;;;;;2.47;2.27;;;20.80;64.60;;;;;;5025022;28;20464;-50
2023/09/28 06:02:07;;;;;;;3.67;2.50;;;20.80;64.60;;;;;;5024508;28;20482;-50
2023/09/28 06:04:35;;;;;;;2.40;2.20;;;20.80;64.60;;;;;;5026964;28;20464;-50
2023/09/28 06:07:03;;;;;;;2.70;1.90;;;20.80;64.60;;;;;;5018314;28;20495;-50
2023/09/28 06:09:32;;;;;;;5.00;2.77;;;20.80;64.70;;;;;;5019464;28;20445;-50
2023/09/28 06:12:02;;;;;;;3.77;2.13;;;20.80;64.60;;;;;;5025169;28;20472;-50
2023/09/28 06:14:30;;;;;;;3.00;2.37;;;20.80;64.70;;;;;;5027948;28;20478;-51
2023/09/28 06:16:58;;;;;;;2.20;2.00;;;20.80;64.70;;;;;;5029194;28;20988;-50
2023/09/28 06:19:27;;;;;;;2.90;2.20;;;20.80;64.60;;;;;;5029995;28;20448;-51
2023/09/28 06:21:55;;;;;;;3.07;2.10;;;20.80;64.70;;;;;;5027403;28;20468;-50
2023/09/28 06:24:24;;;;;;;2.13;1.87;;;20.80;64.70;;;;;;5026675;28;20465;-51
2023/09/28 06:26:53;;;;;;;2.20;2.00;;;20.80;64.60;;;;;;5024280;28;20521;-49
2023/09/28 06:29:22;;;;;;;2.80;2.30;;;20.80;64.70;;;;;;5026174;28;21029;-51
2023/09/28 06:31:51;;;;;;;2.80;2.20;;;20.80;66.00;;;;;;5023243;28;20574;-50
2023/09/28 06:34:19;;;;;;;3.33;2.40;;;20.70;64.70;;;;;;5027184;28;20667;-50
2023/09/28 06:36:47;;;;;;;2.07;1.87;;;20.80;64.60;;;;;;5025333;28;20845;-50
2023/09/28 06:39:20;;;;;;;1.60;1.50;;;20.70;64.80;;;;;;5029526;28;20941;-50
2023/09/28 06:41:48;;;;;;;4.83;3.83;;;20.80;65.10;;;;;;5028153;28;20542;-50
2023/09/28 06:44:27;;;;;;;7.90;4.90;;;20.70;67.30;;;;;;5020299;28;20472;-52
2023/09/28 06:46:56;;;;;;;5.73;4.73;;;20.60;68.90;;;;;;5020482;28;20474;-51
2023/09/28 06:49:26;;;;;;;5.10;4.00;;;20.60;70.30;;;;;;5023102;28;20429;-49
2023/09/28 06:51:54;;;;;;;6.10;3.80;;;20.50;70.40;;;;;;5026035;28;20476;-51
2023/09/28 06:54:22;;;;;;;5.50;4.23;;;20.50;70.10;;;;;;5030350;28;20447;-50
2023/09/28 06:56:50;;;;;;;5.77;3.70;;;20.60;69.90;;;;;;5025792;28;20865;-50
2023/09/28 06:59:19;;;;;;;4.80;3.57;;;20.60;69.50;;;;;;5021410;28;20875;-50
2023/09/28 07:01:49;;;;;;;4.17;3.77;;;20.60;69.30;;;;;;5021828;28;20456;-50
2023/09/28 07:04:17;;;;;;;5.33;4.40;;;20.60;69.20;;;;;;5024475;28;20440;-50
2023/09/28 07:06:45;;;;;;;4.80;3.60;;;20.60;69.10;;;;;;5017607;28;20460;-50
2023/09/28 07:09:14;;;;;;;4.47;3.83;;;20.70;68.70;;;;;;5025845;28;20432;-51
2023/09/28 07:11:42;;;;;;;5.67;3.67;;;20.70;68.70;;;;;;5024965;28;20460;-50
2023/09/28 07:14:10;;;;;;;4.53;3.37;;;20.70;68.70;;;;;;5027487;28;21523;-50
2023/09/28 07:16:38;;;;;;;5.17;3.73;;;20.70;68.40;;;;;;5025783;28;20463;-50
2023/09/28 07:19:08;;;;;;;5.23;3.00;;;20.70;68.40;;;;;;5031702;28;20701;-51
2023/09/28 07:21:37;;;;;;;5.07;3.60;;;20.70;68.10;;;;;;5019216;28;20480;-52
2023/09/28 07:24:06;;;;;;;3.80;3.20;;;20.70;67.80;;;;;;5029930;28;20964;-51
2023/09/28 07:26:46;;;;;;;4.83;3.53;;;20.70;67.70;;;;;;5021017;28;20507;-51
2023/09/28 07:29:15;;;;;;;4.07;3.67;;;20.70;67.70;;;;;;5021361;28;20433;-50
2023/09/28 07:31:43;;;;;;;3.97;3.10;;;20.70;67.60;;;;;;5025008;28;20503;-51
2023/09/28 07:34:13;;;;;;;3.50;3.20;;;20.70;67.40;;;;;;5022873;28;20451;-49
2023/09/28 07:36:41;;;;;;;4.53;3.27;;;20.70;67.40;;;;;;5018513;28;20491;-50
2023/09/28 07:39:09;;;;;;;3.80;3.17;;;20.70;67.10;;;;;;5026658;28;20439;-50
2023/09/28 07:41:38;;;;;;;3.80;3.50;;;20.70;67.10;;;;;;5027713;28;20460;-51
2023/09/28 07:44:06;;;;;;;3.20;2.90;;;20.70;67.10;;;;;;5026907;28;20482;-50
2023/09/28 07:46:35;;;;;;;3.83;3.50;;;20.70;67.10;;;;;;5025214;28;20476;-52
2023/09/28 07:49:03;;;;;;;4.60;3.87;;;20.70;67.10;;;;;;5025816;28;20482;-50
2023/09/28 07:51:32;;;;;;;3.70;3.40;;;20.70;67.10;;;;;;5019177;28;20467;-51
2023/09/28 07:54:01;;;;;;;3.90;3.23;;;20.70;67.20;;;;;;5028267;28;20491;-51
2023/09/28 07:56:29;;;;;;;5.93;3.83;;;20.70;67.20;;;;;;5020813;28;20880;-50
2023/09/28 07:58:57;;;;;;;4.70;3.20;;;20.70;67.00;;;;;;5022557;28;20432;-51
2023/09/28 08:01:26;;;;;;;3.93;3.50;;;20.70;67.00;;;;;;5020728;28;20464;-51
2023/09/28 08:03:55;;;;;;;5.72;3.22;;;20.70;67.20;;;;;;5025075;28;20446;-50
2023/09/28 08:06:23;;;;;;;3.33;2.90;;;20.70;67.30;;;;;;5019760;28;20228;-50
2023/09/28 08:08:59;;;;;;;6.20;2.97;;;20.70;67.10;;;;;;5024064;28;20980;-50
2023/09/28 08:11:30;;;;;;;3.60;3.17;;;20.70;66.90;;;;;;5021380;28;20885;-50
2023/09/28 08:13:59;;;;;;;4.43;3.07;;;20.80;67.00;;;;;;5029554;28;20717;-50
2023/09/28 08:16:27;;;;;;;3.90;3.20;;;20.80;66.90;;;;;;5019975;28;20472;-51
2023/09/28 08:18:55;;;;;;;4.00;3.53;;;20.80;67.10;;;;;;5025435;28;20856;-50
2023/09/28 08:21:24;;;;;;;5.70;3.17;;;20.70;67.20;;;;;;5024542;28;20467;-50
2023/09/28 08:23:52;;;;;;;3.50;3.20;;;20.70;67.10;;;;;;5025582;28;20509;-50
2023/09/28 08:26:22;;;;;;;3.10;2.80;;;20.70;67.10;;;;;;5027496;28;20478;-50
2023/09/28 08:28:50;;;;;;;4.93;3.50;;;20.70;66.90;;;;;;5023954;28;20470;-51
2023/09/28 08:31:19;;;;;;;4.53;3.37;;;20.70;67.00;;;;;;5026299;28;20841;-51
2023/09/28 08:33:48;;;;;;;4.03;3.63;;;20.70;67.00;;;;;;5027059;28;20471;-51
2023/09/28 08:36:16;;;;;;;4.50;2.90;;;20.70;67.10;;;;;;5020842;28;20476;-49
2023/09/28 08:38:46;;;;;;;3.80;3.00;;;20.70;66.90;;;;;;5024755;28;20447;-50
2023/09/28 08:41:17;;;;;;;3.63;3.33;;;20.70;67.00;;;;;;5033788;28;21099;-50
2023/09/28 08:43:55;;;;;;;3.10;2.67;;;20.70;67.00;;;;;;5025095;28;20498;-50
2023/09/28 08:46:25;;;;;;;4.80;2.97;;;20.70;67.00;;;;;;5024169;28;20460;-50
2023/09/28 08:49:14;;;;;;;3.30;2.73;;;20.70;67.00;;;;;;5026740;28;20452;-51
2023/09/28 08:51:44;;;;;;;3.60;2.77;;;20.70;67.00;;;;;;5022973;28;20922;-50
2023/09/28 08:54:13;;;;;;;2.90;2.70;;;20.70;66.90;;;;;;5025589;28;20459;-50
2023/09/28 08:56:43;;;;;;;4.20;3.80;;;20.70;66.90;;;;;;5026701;28;20488;-50
2023/09/28 08:59:14;;;;;;;3.23;2.77;;;20.70;66.90;;;;;;5024568;28;20593;-51
2023/09/28 09:01:43;;;;;;;4.20;3.03;;;20.70;66.80;;;;;;5025831;28;21420;-50
2023/09/28 09:04:11;;;;;;;2.90;2.60;;;20.70;66.80;;;;;;5024793;28;20497;-50
2023/09/28 09:06:42;;;;;;;3.07;2.73;;;20.70;66.80;;;;;;5021061;28;20468;-50
2023/09/28 09:09:15;;;;;;;4.10;3.30;;;20.70;66.60;;;;;;5027585;28;20959;-51
2023/09/28 09:11:49;;;;;;;3.63;3.00;;;20.80;66.90;;;;;;5026361;28;20467;-50
2023/09/28 09:14:20;;;;;;;3.40;2.33;;;20.80;66.80;;;;;;5026749;28;20470;-50
2023/09/28 09:16:49;;;;;;;3.37;2.90;;;20.70;66.70;;;;;;5022573;28;20522;-50
2023/09/28 09:19:17;;;;;;;4.57;3.20;;;20.80;66.90;;;;;;5027295;28;20806;-52
2023/09/28 09:21:45;;;;;;;3.50;3.20;;;20.70;66.60;;;;;;5019434;28;20469;-52
2023/09/28 09:24:18;;;;;;;4.50;2.70;;;20.70;66.80;;;;;;5023185;28;20460;-50
2023/09/28 09:26:49;;;;;;;4.20;2.90;;;20.70;66.70;;;;;;5021528;28;20466;-50
2023/09/28 09:29:20;;;;;;;2.30;2.10;;;20.80;66.70;;;;;;5023788;28;20448;-50
2023/09/28 09:31:49;;;;;;;2.87;2.30;;;20.80;66.70;;;;;;5025856;28;20478;-52
2023/09/28 09:34:19;;;;;;;4.17;2.80;;;20.70;66.60;;;;;;5031973;28;20509;-50
2023/09/28 09:36:54;;;;;;;4.20;3.40;;;20.70;66.40;;;;;;5018895;28;20464;-50
2023/09/28 09:39:24;;;;;;;2.93;2.40;;;20.70;66.50;;;;;;5028314;28;20434;-51
2023/09/28 09:41:53;;;;;;;3.73;3.13;;;20.70;66.60;;;;;;5019829;28;20696;-50
2023/09/28 09:44:24;;;;;;;3.33;3.03;;;20.70;66.70;;;;;;5024115;28;21051;-50
2023/09/28 09:46:55;;;;;;;3.57;3.27;;;20.70;66.70;;;;;;5025878;28;20479;-52
2023/09/28 09:49:25;;;;;;;3.20;2.90;;;20.70;66.80;;;;;;5022015;28;20476;-50
2023/09/28 09:51:54;;;;;;;3.70;3.00;;;20.70;66.70;;;;;;5021079;28;20460;-50
2023/09/28 09:54:22;;;;;;;2.97;2.50;;;20.70;66.70;;;;;;5027436;28;20489;-50
2023/09/28 09:56:52;;;;;;;3.10;2.43;;;20.70;66.30;;;;;;5019499;28;20500;-52
2023/09/28 09:59:23;;;;;;;2.80;2.60;;;20.70;66.40;;;;;;5024783;28;20435;-52
2023/09/28 10:01:53;;;;;;;3.40;3.10;;;20.70;66.50;;;;;;5021534;28;20820;-50
2023/09/28 10:04:26;;;;;;;2.90;2.70;;;20.70;66.40;;;;;;5032162;28;21056;-51
2023/09/28 10:06:56;;;;;;;4.03;3.37;;;20.70;66.50;;;;;;5019046;28;20735;-51
2023/09/28 10:09:24;;;;;;;5.20;3.37;;;20.70;66.60;;;;;;5026478;28;20435;-49
2023/09/28 10:11:56;;;;;;;2.90;2.63;;;20.70;66.50;;;;;;5024569;28;21001;-50
2023/09/28 10:14:26;;;;;;;3.00;2.80;;;20.70;66.40;;;;;;5027494;28;20524;-51
2023/09/28 10:16:55;;;;;;;3.03;2.40;;;20.70;66.70;;;;;;5024365;28;20476;-50
2023/09/28 10:19:26;;;;;;;3.43;2.80;;;20.70;66.70;;;;;;5024629;28;20438;-50
2023/09/28 10:21:56;;;;;;;3.37;3.03;;;20.70;66.60;;;;;;5021431;28;20489;-50
2023/09/28 10:24:30;;;;;;;4.57;3.30;;;20.70;66.60;;;;;;5033483;28;20451;-49
2023/09/28 10:27:08;;;;;;;3.87;2.63;;;20.70;66.50;;;;;;5025970;28;20459;-50
2023/09/28 10:29:39;;;;;;;4.03;3.50;;;20.70;66.50;;;;;;5018067;28;20883;-50
2023/09/28 10:32:26;;;;;;;2.93;2.63;;;20.70;66.50;;;;;;5022595;28;20526;-50
2023/09/28 10:35:13;;;;;;;2.53;2.33;;;20.70;66.40;;;;;;5019148;28;20433;-50
2023/09/28 10:37:41;;;;;;;2.93;2.50;;;20.70;66.40;;;;;;5022275;28;20468;-50
2023/09/28 10:40:11;;;;;;;2.63;2.43;;;20.70;66.50;;;;;;5012513;28;20881;-50
2023/09/28 10:42:39;;;;;;;3.00;2.80;;;20.70;66.40;;;;;;5014329;28;20432;-51
2023/09/28 10:45:10;;;;;;;3.40;3.10;;;20.70;66.40;;;;;;5015998;28;20872;-51
2023/09/28 10:47:38;;;;;;;3.83;3.10;;;20.70;66.40;;;;;;5015511;28;20432;-50
2023/09/28 10:50:08;;;;;;;2.47;2.27;;;20.70;66.50;;;;;;5030166;28;20428;-50
2023/09/28 10:52:36;;;;;;;4.90;2.93;;;20.70;66.40;;;;;;5020316;28;20994;-50
2023/09/28 10:55:06;;;;;;;3.83;2.97;;;20.70;66.50;;;;;;5020680;28;20448;-50
2023/09/28 10:57:35;;;;;;;3.53;2.87;;;20.70;66.50;;;;;;5012179;28;20472;-51
2023/09/28 11:00:09;;;;;;;3.90;2.30;;;20.70;66.50;;;;;;5009486;28;20531;-50
2023/09/28 11:02:40;;;;;;;4.00;2.70;;;20.70;66.50;;;;;;5017928;28;20452;-50
2023/09/28 11:05:09;;;;;;;3.10;2.70;;;20.70;66.50;;;;;;5019056;28;20436;-50
2023/09/28 11:07:40;;;;;;;3.30;2.60;;;20.70;66.50;;;;;;5018817;28;20424;-51
2023/09/28 11:10:09;;;;;;;2.83;2.63;;;20.70;66.50;;;;;;5023721;28;20436;-50
2023/09/28 11:12:38;;;;;;;2.70;2.50;;;20.80;66.80;;;;;;5026346;28;20452;-50
2023/09/28 11:15:09;;;;;;;3.87;3.23;;;20.70;66.60;;;;;;5021158;28;20455;-51
2023/09/28 11:17:40;;;;;;;4.47;2.93;;;20.70;66.60;;;;;;5021641;28;20564;-50
2023/09/28 11:20:11;;;;;;;3.60;2.43;;;20.80;66.70;;;;;;5021350;28;20819;-50
2023/09/28 11:22:40;;;;;;;3.20;2.87;;;20.70;66.50;;;;;;5024661;28;20491;-51
2023/09/28 11:25:11;;;;;;;3.37;2.40;;;20.70;66.50;;;;;;5022765;28;20427;-50
2023/09/28 11:27:41;;;;;;;4.50;2.97;;;20.70;66.60;;;;;;5018796;28;20425;-50
2023/09/28 11:30:19;;;;;;;4.03;3.20;;;20.80;66.70;;;;;;5023106;28;20455;-50
2023/09/28 11:32:50;;;;;;;4.10;3.10;;;20.80;66.70;;;;;;5025527;28;20437;-49
2023/09/28 11:35:25;;;;;;;2.67;2.40;;;20.80;66.70;;;;;;5020344;28;20972;-49
2023/09/28 11:37:58;;;;;;;3.78;3.25;;;20.80;66.70;;;;;;5024503;28;20515;-49
2023/09/28 11:40:27;;;;;;;3.47;3.03;;;20.80;66.80;;;;;;5025035;28;20709;-50
2023/09/28 11:42:58;;;;;;;3.80;2.67;;;20.80;66.80;;;;;;5028644;28;20463;-50
2023/09/28 11:45:27;;;;;;;3.23;2.73;;;20.80;66.80;;;;;;5018526;28;20472;-50
2023/09/28 11:47:57;;;;;;;3.57;3.17;;;20.80;66.80;;;;;;5026389;28;20611;-51
2023/09/28 11:50:28;;;;;;;4.00;2.73;;;20.80;67.00;;;;;;5018913;28;20452;-50
2023/09/28 11:52:58;;;;;;;3.87;2.50;;;20.80;66.90;;;;;;5021855;28;20477;-50
2023/09/28 11:55:26;;;;;;;4.67;2.50;;;20.80;66.90;;;;;;5022146;28;20463;-56
2023/09/28 11:57:59;;;;;;;2.60;2.40;;;20.80;66.90;;;;;;5024324;28;20468;-50
2023/09/28 12:00:27;;;;;;;3.20;2.67;;;20.80;66.90;;;;;;5022320;28;20463;-50
2023/09/28 12:02:57;;;;;;;5.40;2.40;;;20.80;66.90;;;;;;5022551;28;20445;-50
2023/09/28 12:05:25;;;;;;;2.90;2.60;;;20.80;67.00;;;;;;5023212;28;20995;-53
2023/09/28 12:07:53;;;;;;;3.50;2.57;;;20.80;66.90;;;;;;5021722;28;20500;-50
2023/09/28 12:10:22;;;;;;;3.50;2.53;;;20.80;66.90;;;;;;5022415;28;20828;-50
2023/09/28 12:12:51;;;;;;;3.93;2.57;;;20.80;66.90;;;;;;5025699;28;20453;-51
2023/09/28 12:15:19;;;;;;;2.33;2.13;;;20.80;67.00;;;;;;5022866;28;20465;-50
2023/09/28 12:17:47;;;;;;;2.97;2.70;;;20.80;67.00;;;;;;5022683;28;20474;-50
2023/09/28 12:20:16;;;;;;;2.50;2.30;;;20.80;66.80;;;;;;5023662;28;20454;-50
2023/09/28 12:22:45;;;;;;;2.70;2.50;;;20.80;66.80;;;;;;5027919;28;20811;-50
2023/09/28 12:25:13;;;;;;;3.73;3.10;;;20.80;66.90;;;;;;5025042;28;20949;-51
2023/09/28 12:27:44;;;;;;;3.63;2.60;;;20.80;67.10;;;;;;5022432;28;20447;-50
2023/09/28 12:30:18;;;;;;;4.20;2.50;;;20.80;67.00;;;;;;5020295;28;20526;-49
2023/09/28 12:32:47;;;;;;;4.13;3.00;;;20.80;66.90;;;;;;5024105;28;20460;-51
2023/09/28 12:35:17;;;;;;;7.33;3.57;;;20.80;66.90;;;;;;5020540;28;20436;-52
2023/09/28 12:37:46;;;;;;;3.00;2.67;;;20.90;67.70;;;;;;5021799;28;20458;-53
2023/09/28 12:40:15;;;;;;;3.23;2.93;;;20.90;67.40;;;;;;5025106;28;20771;-50
2023/09/28 12:42:43;;;;;;;6.80;3.00;;;20.90;67.70;;;;;;5027041;28;20452;-49
2023/09/28 12:45:11;;;;;;;4.65;3.72;;;20.90;68.90;;;;;;5025761;28;20440;-52
2023/09/28 12:47:40;;;;;;;7.00;3.27;;;20.90;69.80;;;;;;5026932;28;20200;-50
2023/09/28 12:50:08;;;;;;;3.20;2.90;;;20.90;69.80;;;;;;5024603;28;20439;-48
2023/09/28 12:52:38;;;;;;;4.85;3.60;;;20.90;69.60;;;;;;5022123;28;20444;-50
2023/09/28 12:55:07;;;;;;;6.67;3.60;;;20.90;69.80;;;;;;5025632;28;20832;-50
2023/09/28 12:57:36;;;;;;;5.33;3.30;;;20.90;69.50;;;;;;5027161;28;20439;-50
2023/09/28 13:00:08;;;;;;;3.10;2.73;;;20.90;69.40;;;;;;5024024;28;20570;-50